createdAt,value
2022-12-09T00:01:37.035Z,56.78
2022-12-09T00:04:05.482Z,52.22
2022-12-09T00:06:33.551Z,50.08
2022-12-09T00:09:01.902Z,49.40
2022-12-09T00:11:29.739Z,43.35
2022-12-09T00:13:59.782Z,42.25
2022-12-09T00:16:27.556Z,42.95
2022-12-09T00:18:56.757Z,43.67
2022-12-09T00:21:32.936Z,43.80
2022-12-09T00:24:08.028Z,44.17
2022-12-09T00:26:35.930Z,47.13
2022-12-09T00:29:04.710Z,43.00
2022-12-09T00:31:37.612Z,43.78
2022-12-09T00:34:10.898Z,46.08
2022-12-09T00:36:40.073Z,45.00
2022-12-09T00:39:08.348Z,43.13
2022-12-09T00:41:35.900Z,41.65
2022-12-09T00:44:04.728Z,38.92
2022-12-09T00:46:32.527Z,37.00
2022-12-09T00:49:00.673Z,39.60
2022-12-09T00:51:28.528Z,37.58
2022-12-09T00:53:56.871Z,37.40
2022-12-09T00:56:28.516Z,37.78
2022-12-09T00:58:59.301Z,32.88
2022-12-09T01:01:28.482Z,32.88
2022-12-09T01:03:58.048Z,33.28
2022-12-09T01:06:27.505Z,36.05
2022-12-09T01:08:55.857Z,35.60
2022-12-09T01:11:28.957Z,38.08
2022-12-09T01:14:03.058Z,34.83
2022-12-09T01:16:34.887Z,36.45
2022-12-09T01:19:08.604Z,35.65
2022-12-09T01:21:38.391Z,35.30
2022-12-09T01:24:10.862Z,33.78
2022-12-09T01:26:39.413Z,31.77
2022-12-09T01:29:07.454Z,30.00
2022-12-09T01:31:36.736Z,27.85
2022-12-09T01:34:05.751Z,27.92
2022-12-09T01:36:33.736Z,28.88
2022-12-09T01:39:02.073Z,27.40
2022-12-09T01:41:30.229Z,26.48
2022-12-09T01:44:26.631Z,24.27
2022-12-09T01:47:01.214Z,27.83
2022-12-09T01:49:37.389Z,29.27
2022-12-09T01:52:19.097Z,25.23
2022-12-09T01:54:51.255Z,25.55
2022-12-09T01:57:19.748Z,23.88
2022-12-09T01:59:48.431Z,24.80
2022-12-09T02:02:19.240Z,23.60
2022-12-09T02:04:50.407Z,23.90
2022-12-09T02:07:20.557Z,23.40
2022-12-09T02:09:53.418Z,23.83
2022-12-09T02:12:54.525Z,24.95
2022-12-09T02:15:32.747Z,24.80
2022-12-09T02:18:34.897Z,25.05
2022-12-09T02:21:24.415Z,25.25
2022-12-09T02:24:11.657Z,27.98
2022-12-09T02:26:54.032Z,26.88
2022-12-09T02:29:30.598Z,28.20
2022-12-09T02:32:49.185Z,26.98
2022-12-09T02:36:00.370Z,25.80
2022-12-09T02:38:35.908Z,23.58
2022-12-09T02:41:15.394Z,25.23
2022-12-09T02:43:52.612Z,23.80
2022-12-09T02:46:28.392Z,24.35
2022-12-09T02:49:00.310Z,24.95
2022-12-09T02:51:33.044Z,25.63
2022-12-09T02:54:13.372Z,24.55
2022-12-09T02:56:50.349Z,23.02
2022-12-09T02:59:18.725Z,25.08
2022-12-09T03:02:18.739Z,23.50
2022-12-09T03:05:08.752Z,24.77
2022-12-09T03:07:52.235Z,25.70
2022-12-09T03:10:37.775Z,26.33
2022-12-09T03:13:35.795Z,24.52
2022-12-09T03:16:36.957Z,25.42
2022-12-09T03:19:22.168Z,26.00
2022-12-09T03:21:54.685Z,25.98
2022-12-09T03:24:32.855Z,25.08
2022-12-09T03:27:08.036Z,24.10
2022-12-09T03:29:41.587Z,24.85
2022-12-09T03:32:15.461Z,24.65
2022-12-09T03:34:46.840Z,25.08
2022-12-09T03:37:18.977Z,26.77
2022-12-09T03:39:49.552Z,25.02
2022-12-09T03:42:28.522Z,24.90
2022-12-09T03:45:02.986Z,26.03
2022-12-09T03:47:34.154Z,26.42
2022-12-09T03:50:02.106Z,25.25
2022-12-09T03:52:46.590Z,25.73
2022-12-09T03:55:40.395Z,26.20
2022-12-09T03:58:31.681Z,25.73
2022-12-09T04:01:00.786Z,25.80
2022-12-09T04:05:56.682Z,22.63
2022-12-09T04:08:24.836Z,25.08
2022-12-09T04:10:52.703Z,25.40
2022-12-09T04:13:20.559Z,25.02
2022-12-09T04:15:48.475Z,24.58
2022-12-09T04:18:16.388Z,25.50
2022-12-09T04:20:44.055Z,25.02
2022-12-09T04:23:12.033Z,25.77
2022-12-09T04:25:39.672Z,24.05
2022-12-09T04:28:07.607Z,23.80
2022-12-09T04:30:35.174Z,24.42
2022-12-09T04:33:22.224Z,23.65
2022-12-09T04:35:49.901Z,22.88
2022-12-09T04:38:18.077Z,24.02
2022-12-09T04:40:45.621Z,20.95
2022-12-09T04:43:13.498Z,21.02
2022-12-09T04:45:41.371Z,21.45
2022-12-09T04:48:10.259Z,20.25
2022-12-09T04:50:41.872Z,20.17
2022-12-09T04:53:09.808Z,20.45
2022-12-09T04:55:37.777Z,19.40
2022-12-09T04:58:05.824Z,19.13
2022-12-09T05:00:33.872Z,20.23
2022-12-09T05:03:02.399Z,18.63
2022-12-09T05:05:30.735Z,18.90
2022-12-09T05:07:58.986Z,18.57
2022-12-09T05:10:27.291Z,18.33
2022-12-09T05:12:55.594Z,17.00
2022-12-09T05:15:23.317Z,17.88
2022-12-09T05:17:51.950Z,16.88
2022-12-09T05:20:20.431Z,16.45
2022-12-09T05:22:48.388Z,15.45
2022-12-09T05:25:16.358Z,16.42
2022-12-09T05:27:44.496Z,15.98
2022-12-09T05:30:13.384Z,14.95
2022-12-09T05:32:42.068Z,18.13
2022-12-09T05:35:09.861Z,18.00
2022-12-09T05:37:37.910Z,17.20
2022-12-09T05:40:07.651Z,18.50
2022-12-09T05:42:41.305Z,17.38
2022-12-09T05:45:11.106Z,16.98
2022-12-09T05:47:39.611Z,17.48
2022-12-09T05:50:09.224Z,17.52
2022-12-09T05:52:38.622Z,19.30
2022-12-09T05:55:09.468Z,20.87
2022-12-09T05:57:38.033Z,22.90
2022-12-09T06:00:09.638Z,21.98
2022-12-09T06:02:40.979Z,21.77
2022-12-09T06:05:10.224Z,18.90
2022-12-09T06:07:38.579Z,19.33
2022-12-09T06:10:07.746Z,19.15
2022-12-09T06:12:36.375Z,19.40
2022-12-09T06:15:09.652Z,18.95
2022-12-09T06:17:39.556Z,16.38
2022-12-09T06:20:09.479Z,16.42
2022-12-09T06:22:38.119Z,17.92
2022-12-09T06:25:06.684Z,19.10
2022-12-09T06:27:34.989Z,17.77
2022-12-09T06:30:03.336Z,17.23
2022-12-09T06:32:32.242Z,19.50
2022-12-09T06:35:00.497Z,19.17
2022-12-09T06:37:28.623Z,19.83
2022-12-09T06:39:56.566Z,21.58
2022-12-09T06:42:24.861Z,20.75
2022-12-09T06:44:52.845Z,20.55
2022-12-09T06:47:21.350Z,21.05
2022-12-09T06:49:49.581Z,22.02
2022-12-09T06:52:18.404Z,22.13
2022-12-09T06:54:46.771Z,22.50
2022-12-09T06:57:15.003Z,22.83
2022-12-09T06:59:42.880Z,23.23
2022-12-09T07:02:11.747Z,23.17
2022-12-09T07:04:39.713Z,22.67
2022-12-09T07:07:11.229Z,22.60
2022-12-09T07:09:39.814Z,21.63
2022-12-09T07:12:10.472Z,21.98
2022-12-09T07:14:38.735Z,19.75
2022-12-09T07:17:08.488Z,18.00
2022-12-09T07:19:37.179Z,26.15
2022-12-09T07:24:33.520Z,16.23
2022-12-09T07:27:07.519Z,14.60
2022-12-09T07:29:37.849Z,15.18
2022-12-09T07:32:06.366Z,14.80
2022-12-09T07:34:34.180Z,13.95
2022-12-09T07:37:02.474Z,14.43
2022-12-09T07:39:30.424Z,13.98
2022-12-09T07:41:58.932Z,14.80
2022-12-09T07:44:30.530Z,13.63
2022-12-09T07:46:58.749Z,14.23
2022-12-09T07:49:27.338Z,13.15
2022-12-09T07:51:55.615Z,13.50
2022-12-09T07:54:23.318Z,13.45
2022-12-09T07:56:51.365Z,14.07
2022-12-09T07:59:19.240Z,12.90
2022-12-09T08:01:48.018Z,14.68
2022-12-09T08:04:16.385Z,16.67
2022-12-09T08:06:44.749Z,15.15
2022-12-09T08:09:13.993Z,17.33
2022-12-09T08:11:43.485Z,14.80
2022-12-09T08:14:13.462Z,15.87
2022-12-09T08:16:43.890Z,17.00
2022-12-09T08:19:13.318Z,17.08
2022-12-09T08:21:41.862Z,18.30
2022-12-09T08:24:12.833Z,17.83
2022-12-09T08:26:42.196Z,16.83
2022-12-09T08:29:13.324Z,17.00
2022-12-09T08:31:43.925Z,16.50
2022-12-09T08:34:12.393Z,18.77
2022-12-09T08:36:41.664Z,17.10
2022-12-09T08:39:10.928Z,17.65
2022-12-09T08:41:40.289Z,15.95
2022-12-09T08:44:14.464Z,14.00
2022-12-09T08:46:47.326Z,14.32
2022-12-09T08:49:20.328Z,15.00
2022-12-09T08:51:51.140Z,14.05
2022-12-09T08:54:20.026Z,12.10
2022-12-09T08:56:51.518Z,11.77
2022-12-09T08:59:20.216Z,13.38
2022-12-09T09:01:48.643Z,14.10
2022-12-09T09:04:19.701Z,14.13
2022-12-09T09:06:50.778Z,14.05
2022-12-09T09:09:21.360Z,14.57
2022-12-09T09:11:49.701Z,14.88
2022-12-09T09:14:17.559Z,14.15
2022-12-09T09:16:46.433Z,14.35
2022-12-09T09:19:23.396Z,16.92
2022-12-09T09:21:52.512Z,17.85
2022-12-09T09:24:24.504Z,16.47
2022-12-09T09:26:54.012Z,14.85
2022-12-09T09:29:23.822Z,15.85
2022-12-09T09:31:56.224Z,14.63
2022-12-09T09:34:26.981Z,14.02
2022-12-09T09:36:56.548Z,13.63
2022-12-09T09:39:24.775Z,13.05
2022-12-09T09:42:06.280Z,13.90
2022-12-09T09:44:50.222Z,12.40
2022-12-09T09:47:45.494Z,12.05
2022-12-09T09:50:44.712Z,11.90
2022-12-09T09:53:20.974Z,12.38
2022-12-09T09:56:01.327Z,10.68
2022-12-09T09:58:42.038Z,11.70
2022-12-09T10:01:19.975Z,11.50
2022-12-09T10:04:22.912Z,11.73
2022-12-09T10:07:18.039Z,11.68
2022-12-09T10:10:16.881Z,11.55
2022-12-09T10:13:22.294Z,11.40
2022-12-09T10:16:25.191Z,11.95
2022-12-09T10:19:09.691Z,11.27
2022-12-09T10:21:44.267Z,11.10
2022-12-09T10:24:39.934Z,13.00
2022-12-09T10:27:14.620Z,13.43
2022-12-09T10:29:57.778Z,12.90
2022-12-09T10:32:30.091Z,14.15
2022-12-09T10:34:59.244Z,13.05
2022-12-09T10:37:36.848Z,14.57
2022-12-09T10:40:27.790Z,18.00
2022-12-09T10:43:18.426Z,19.17
2022-12-09T10:48:57.962Z,20.95
2022-12-09T10:51:34.746Z,23.95
2022-12-09T10:54:15.377Z,23.33
2022-12-09T10:57:12.522Z,23.20
2022-12-09T10:59:55.385Z,23.83
2022-12-09T11:02:24.205Z,22.67
2022-12-09T11:07:26.958Z,23.77
2022-12-09T11:09:58.118Z,23.80
2022-12-09T11:12:33.464Z,22.10
2022-12-09T11:15:12.597Z,21.33
2022-12-09T11:17:55.967Z,21.98
2022-12-09T11:20:29.408Z,21.23
2022-12-09T11:23:14.468Z,19.17
2022-12-09T11:26:14.458Z,21.15
2022-12-09T11:28:42.112Z,17.73
2022-12-09T11:31:29.467Z,16.23
2022-12-09T11:34:04.415Z,15.65
2022-12-09T11:36:44.008Z,16.17
2022-12-09T11:39:26.269Z,14.73
2022-12-09T11:42:22.508Z,14.05
2022-12-09T11:45:05.113Z,13.30
2022-12-09T11:48:04.628Z,12.75
2022-12-09T11:50:35.004Z,12.85
2022-12-09T11:53:12.736Z,12.73
2022-12-09T11:56:18.458Z,12.82
2022-12-09T11:59:22.730Z,14.50
2022-12-09T12:02:17.371Z,15.48
2022-12-09T12:05:22.797Z,15.98
2022-12-09T12:08:27.111Z,13.60
2022-12-09T12:11:07.402Z,12.38
2022-12-09T12:13:47.222Z,12.60
2022-12-09T12:16:47.977Z,12.85
2022-12-09T12:19:31.129Z,12.75
2022-12-09T12:22:39.495Z,13.50
2022-12-09T12:25:40.262Z,15.85
2022-12-09T12:28:46.062Z,14.18
2022-12-09T12:31:41.383Z,15.32
2022-12-09T12:34:42.929Z,14.48
2022-12-09T12:37:19.423Z,15.57
2022-12-09T12:40:05.021Z,14.07
2022-12-09T12:43:25.138Z,14.48
2022-12-09T12:46:19.241Z,15.48
2022-12-09T12:49:05.398Z,15.20
2022-12-09T12:52:12.681Z,14.18
2022-12-09T12:55:36.548Z,16.48
2022-12-09T12:58:31.628Z,15.77
2022-12-09T13:01:22.920Z,17.08
2022-12-09T13:04:27.256Z,16.02
2022-12-09T13:07:41.924Z,15.45
2022-12-09T13:10:33.176Z,16.23
2022-12-09T13:13:02.982Z,13.88
2022-12-09T13:15:41.165Z,14.57
2022-12-09T13:18:35.960Z,14.23
2022-12-09T13:21:07.331Z,13.15
2022-12-09T13:24:27.198Z,15.52
2022-12-09T13:27:35.338Z,13.30
2022-12-09T13:30:20.258Z,13.93
2022-12-09T13:33:26.554Z,13.13
2022-12-09T13:36:34.577Z,14.13
2022-12-09T13:39:05.458Z,15.63
2022-12-09T13:41:56.016Z,11.95
2022-12-09T13:44:34.842Z,14.82
2022-12-09T13:47:26.810Z,14.57
2022-12-09T13:50:03.860Z,15.20
2022-12-09T13:53:07.264Z,15.80
2022-12-09T13:56:03.091Z,14.60
2022-12-09T13:59:11.593Z,14.75
2022-12-09T14:01:51.379Z,14.82
2022-12-09T14:04:28.308Z,16.25
2022-12-09T14:07:34.162Z,15.98
2022-12-09T14:10:02.390Z,15.30
2022-12-09T14:12:30.774Z,15.63
2022-12-09T14:15:03.086Z,17.20
2022-12-09T14:17:31.260Z,16.85
2022-12-09T14:20:26.677Z,17.50
2022-12-09T14:23:12.619Z,18.15
2022-12-09T14:25:58.554Z,14.23
2022-12-09T14:28:40.768Z,17.05
2022-12-09T14:31:09.325Z,15.27
2022-12-09T14:33:46.732Z,17.85
2022-12-09T14:36:14.395Z,17.95
2022-12-09T14:39:24.882Z,17.77
2022-12-09T14:42:09.927Z,18.77
2022-12-09T14:44:49.561Z,18.95
2022-12-09T14:47:33.074Z,19.55
2022-12-09T14:50:21.404Z,20.77
2022-12-09T14:52:57.721Z,18.85
2022-12-09T14:55:28.263Z,17.63
2022-12-09T14:58:00.132Z,16.52
2022-12-09T15:00:36.072Z,16.33
2022-12-09T15:03:42.571Z,16.75
2022-12-09T15:06:18.700Z,17.83
2022-12-09T15:08:48.323Z,19.90
2022-12-09T15:11:31.759Z,17.95
2022-12-09T15:14:23.016Z,18.88
2022-12-09T15:16:52.555Z,19.52
2022-12-09T15:19:58.565Z,19.80
2022-12-09T15:22:25.122Z,19.55
2022-12-09T15:24:53.751Z,19.73
2022-12-09T15:27:24.878Z,20.67
2022-12-09T15:29:54.147Z,19.58
2022-12-09T15:32:30.156Z,21.20
2022-12-09T15:35:23.951Z,18.95
2022-12-09T15:37:54.804Z,19.98
2022-12-09T15:40:22.981Z,18.80
2022-12-09T15:42:54.403Z,17.30
2022-12-09T15:45:35.378Z,18.25
2022-12-09T15:48:18.126Z,19.02
2022-12-09T15:50:57.387Z,17.70
2022-12-09T15:53:43.460Z,19.13
2022-12-09T15:56:42.068Z,19.48
2022-12-09T15:59:23.861Z,17.95
2022-12-09T16:01:55.886Z,17.02
2022-12-09T16:04:32.385Z,17.52
2022-12-09T16:07:09.162Z,18.20
2022-12-09T16:09:37.502Z,16.67
2022-12-09T16:12:23.543Z,17.70
2022-12-09T16:14:51.637Z,16.00
2022-12-09T16:17:27.324Z,16.63
2022-12-09T16:19:56.103Z,18.15
2022-12-09T16:22:32.059Z,18.58
2022-12-09T16:25:22.073Z,16.73
2022-12-09T16:28:01.677Z,16.75
2022-12-09T16:30:33.479Z,14.95
2022-12-09T16:33:03.202Z,17.23
2022-12-09T16:35:39.718Z,16.65
2022-12-09T16:38:10.385Z,16.80
2022-12-09T16:40:44.956Z,15.30
2022-12-09T16:43:19.105Z,15.77
2022-12-09T16:45:53.548Z,16.40
2022-12-09T16:48:24.903Z,14.10
2022-12-09T16:51:03.344Z,14.70
2022-12-09T16:53:39.227Z,14.77
2022-12-09T16:56:20.399Z,13.20
2022-12-09T16:58:48.448Z,11.52
2022-12-09T17:01:19.513Z,14.38
2022-12-09T17:03:56.610Z,12.75
2022-12-09T17:06:25.015Z,12.65
2022-12-09T17:08:52.696Z,15.15
2022-12-09T17:11:21.880Z,12.70
2022-12-09T17:13:50.544Z,15.85
2022-12-09T17:16:22.291Z,13.60
2022-12-09T17:18:50.588Z,13.73
2022-12-09T17:21:19.697Z,14.80
2022-12-09T17:23:47.502Z,14.38
2022-12-09T17:26:20.058Z,13.02
2022-12-09T17:28:49.174Z,12.45
2022-12-09T17:31:24.018Z,13.95
2022-12-09T17:33:53.132Z,14.40
2022-12-09T17:36:21.053Z,13.50
2022-12-09T17:38:48.717Z,11.85
2022-12-09T17:41:20.795Z,13.15
2022-12-09T17:43:48.492Z,11.63
2022-12-09T17:46:16.870Z,10.68
2022-12-09T17:48:45.098Z,12.18
2022-12-09T17:51:18.348Z,13.53
2022-12-09T17:53:48.879Z,13.60
2022-12-09T17:56:21.013Z,13.73
2022-12-09T17:58:59.825Z,15.48
2022-12-09T18:01:28.361Z,13.77
2022-12-09T18:04:06.250Z,15.73
2022-12-09T18:09:18.177Z,12.93
2022-12-09T18:11:47.012Z,13.35
2022-12-09T18:14:16.067Z,14.45
2022-12-09T18:16:50.020Z,14.27
2022-12-09T18:19:20.865Z,14.48
2022-12-09T18:21:48.876Z,13.93
2022-12-09T18:24:16.549Z,14.90
2022-12-09T18:26:45.556Z,12.60
2022-12-09T18:29:13.884Z,11.75
2022-12-09T18:31:45.836Z,11.77
2022-12-09T18:34:13.816Z,12.48
2022-12-09T18:36:42.016Z,13.68
2022-12-09T18:39:09.886Z,11.20
2022-12-09T18:41:37.924Z,12.38
2022-12-09T18:44:08.687Z,11.55
2022-12-09T18:46:41.103Z,9.52
2022-12-09T18:49:17.306Z,10.30
2022-12-09T18:51:47.760Z,11.65
2022-12-09T18:54:20.595Z,9.65
2022-12-09T18:56:48.585Z,10.13
2022-12-09T18:59:16.473Z,9.38
2022-12-09T19:01:47.666Z,9.23
2022-12-09T19:04:19.794Z,11.27
2022-12-09T19:06:50.477Z,11.00
2022-12-09T19:09:22.908Z,10.90
2022-12-09T19:11:52.917Z,11.20
2022-12-09T19:14:23.950Z,11.30
2022-12-09T19:16:52.725Z,10.93
2022-12-09T19:19:25.678Z,10.73
2022-12-09T19:21:54.964Z,10.55
2022-12-09T19:24:28.767Z,11.55
2022-12-09T19:26:57.991Z,11.15
2022-12-09T19:29:27.985Z,12.85
2022-12-09T19:31:57.377Z,12.05
2022-12-09T19:34:28.507Z,9.40
2022-12-09T19:37:00.411Z,11.48
2022-12-09T19:39:31.504Z,10.45
2022-12-09T19:42:01.424Z,11.23
2022-12-09T19:45:00.835Z,10.07
2022-12-09T19:47:17.920Z,11.82
2022-12-09T19:49:45.588Z,11.63
2022-12-09T19:52:14.046Z,11.70
2022-12-09T19:54:41.718Z,9.98
2022-12-09T19:57:09.695Z,10.05
2022-12-09T19:59:37.929Z,9.52
2022-12-09T20:02:08.019Z,9.05
2022-12-09T20:04:51.506Z,9.10
2022-12-09T20:07:20.747Z,9.32
2022-12-09T20:09:49.238Z,8.20
2022-12-09T20:12:17.295Z,7.57
2022-12-09T20:14:45.036Z,8.38
2022-12-09T20:17:13.048Z,8.93
2022-12-09T20:19:40.675Z,8.15
2022-12-09T20:22:08.610Z,8.43
2022-12-09T20:24:36.235Z,9.93
2022-12-09T20:27:04.246Z,10.48
2022-12-09T20:29:37.250Z,10.23
2022-12-09T20:32:09.086Z,11.05
2022-12-09T20:34:36.914Z,10.48
2022-12-09T20:37:05.720Z,11.30
2022-12-09T20:39:33.418Z,8.88
2022-12-09T20:42:01.504Z,7.78
2022-12-09T20:44:29.312Z,8.27
2022-12-09T20:46:57.591Z,7.15
2022-12-09T20:49:27.183Z,8.88
2022-12-09T20:51:55.632Z,9.32
2022-12-09T20:54:23.801Z,8.60
2022-12-09T20:56:53.148Z,8.95
2022-12-09T20:59:20.816Z,7.28
2022-12-09T21:01:48.947Z,7.65
2022-12-09T21:04:18.139Z,7.45
2022-12-09T21:06:46.469Z,8.68
2022-12-09T21:09:21.956Z,9.25
2022-12-09T21:11:51.172Z,8.07
2022-12-09T21:14:19.634Z,9.05
2022-12-09T21:16:50.681Z,8.25
2022-12-09T21:19:25.007Z,10.55
2022-12-09T21:21:54.857Z,8.73
2022-12-09T21:24:24.314Z,8.57
2022-12-09T21:26:55.440Z,7.35
2022-12-09T21:29:31.207Z,9.00
2022-12-09T21:32:01.861Z,8.82
2022-12-09T21:34:30.443Z,8.48
2022-12-09T21:36:58.396Z,8.20
2022-12-09T21:39:28.089Z,9.95
2022-12-09T21:41:56.338Z,8.93
2022-12-09T21:44:25.667Z,9.27
2022-12-09T21:46:54.028Z,8.85
2022-12-09T21:49:22.509Z,8.90
2022-12-09T21:51:50.423Z,8.60
2022-12-09T21:54:18.043Z,8.25
2022-12-09T21:56:46.497Z,8.40
2022-12-09T21:59:14.996Z,7.88
2022-12-09T22:01:43.965Z,9.15
2022-12-09T22:04:16.318Z,9.95
2022-12-09T22:06:49.320Z,9.45
2022-12-09T22:09:20.853Z,13.05
2022-12-09T22:11:49.216Z,11.98
2022-12-09T22:14:17.466Z,10.43
2022-12-09T22:16:46.558Z,9.40
2022-12-09T22:19:19.578Z,8.55
2022-12-09T22:21:48.589Z,8.38
2022-12-09T22:24:17.668Z,8.07
2022-12-09T22:26:46.302Z,7.70
2022-12-09T22:29:17.174Z,6.83
2022-12-09T22:31:45.959Z,8.35
2022-12-09T22:34:17.837Z,7.07
2022-12-09T22:36:48.538Z,7.32
2022-12-09T22:39:19.262Z,7.80
2022-12-09T22:41:47.867Z,7.78
2022-12-09T22:44:19.058Z,7.97
2022-12-09T22:46:49.132Z,7.13
2022-12-09T22:49:18.086Z,7.80
2022-12-09T22:51:47.656Z,7.20
2022-12-09T22:54:16.098Z,8.32
2022-12-09T22:56:45.610Z,8.05
2022-12-09T22:59:14.183Z,7.20
2022-12-09T23:01:49.082Z,8.32
2022-12-09T23:04:21.881Z,7.20
2022-12-09T23:06:51.101Z,7.78
2022-12-09T23:09:22.663Z,6.28
2022-12-09T23:11:52.479Z,7.43
2022-12-09T23:14:20.547Z,7.35
2022-12-09T23:16:48.421Z,7.78
2022-12-09T23:19:16.709Z,6.90
2022-12-09T23:21:44.765Z,7.70
2022-12-09T23:24:21.045Z,6.63
2022-12-09T23:26:56.209Z,6.15
2022-12-09T23:29:24.341Z,6.20
2022-12-09T23:31:52.959Z,7.03
2022-12-09T23:34:20.831Z,7.25
2022-12-09T23:36:48.821Z,7.10
2022-12-09T23:39:18.808Z,7.05
2022-12-09T23:41:47.333Z,6.68
2022-12-09T23:44:18.393Z,6.90
2022-12-09T23:46:47.908Z,6.70
2022-12-09T23:49:16.321Z,7.03
2022-12-09T23:51:45.193Z,6.30
2022-12-09T23:54:14.991Z,6.40
2022-12-09T23:56:48.139Z,6.80
2022-12-09T23:59:17.919Z,6.32
